Strathclair, Canada
Current Conditions -  °F | °C
As of 2:00 PM on Thursday 30 Oct 2014 (Local Time) from CYBR Reporting Station
Scattered Clouds Scattered Clouds  
Wind Chill: 26°   Ceiling: Unl
Heat Index: 36°   Visibility: 15mi
Dew Point: 18°   Wind: 15mph
Humidity: 48%   Direction: 340°NNW
Pressure: 30.46"   Gusts: NA
Location:  50.4°N, 100.4°W
Report Text: CYBR 301900Z 34013KT 15SM SCT032 02/M08 A3046 RMK SC3 SLP338
Loading
Personal Weather Stations






























Interactive Weather Map
Tropical Storm Tracking
New forecast layout! Learn more

10-Day Weather Forecast

Advertisements
Track Severe Weather on mobile